Time;durP1;ratioP1;P1;durP2;ratioP2;P2;SDS_P1;SDS_P2;PMS_P1;PMS_P2;Temp;Humidity;BMP_temperature;BMP_pressure;BME280_temperature;BME280_humidity;BME280_pressure;Samples;Min_cycle;Max_cycle;Signal;HPM_P1;HPM_P2
2022/06/10 00:00:26;;;;;;;9.55;6.85;;;12.90;99.90;;;-144.05;86.27;125687.94;6161851;23;20449;-87
2022/06/10 00:02:53;;;;;;;13.82;6.93;;;12.90;99.90;;;-144.05;85.87;125687.94;6189793;23;20012;-86
2022/06/10 00:05:26;;;;;;;11.50;7.18;;;12.80;99.90;;;-144.05;86.27;125687.94;6159724;23;20446;-86
2022/06/10 00:07:53;;;;;;;10.20;6.50;;;12.80;99.90;;;-144.05;85.99;125687.94;6159224;23;20447;-85
2022/06/10 00:10:27;;;;;;;10.98;6.82;;;12.80;99.90;;;-144.05;85.92;125687.94;6186015;23;20009;-85
2022/06/10 00:12:54;;;;;;;15.15;7.15;;;12.80;99.90;;;-144.05;85.67;125687.94;6159417;23;20001;-83
2022/06/10 00:15:21;;;;;;;11.80;6.25;;;12.70;99.90;;;-144.05;85.61;125687.94;6159561;23;20009;-83
2022/06/10 00:17:47;;;;;;;17.20;7.40;;;12.70;99.90;;;-144.05;85.59;125687.94;6160131;23;20353;-83
2022/06/10 00:20:20;;;;;;;10.10;7.20;;;12.70;99.90;;;-144.05;85.86;125687.94;6185634;23;20008;-85
2022/06/10 00:22:46;;;;;;;13.07;7.57;;;12.70;99.90;;;-144.05;86.07;125687.94;6158953;23;20088;-84
2022/06/10 00:25:14;;;;;;;13.45;7.20;;;12.60;99.90;;;-144.05;86.10;125687.94;6185594;23;20016;-81
2022/06/10 00:27:40;;;;;;;10.98;7.13;;;12.60;99.90;;;-144.05;85.89;125687.94;6200189;23;20363;-83
2022/06/10 00:30:09;;;;;;;11.38;6.70;;;12.60;99.90;;;-144.05;86.36;125687.94;6215462;23;20031;-81
2022/06/10 00:32:37;;;;;;;13.35;6.40;;;12.60;99.90;;;-144.05;86.47;125687.94;6188101;23;20005;-85
2022/06/10 00:35:05;;;;;;;10.32;6.85;;;12.60;99.90;;;-144.05;86.46;125687.94;6221192;23;20371;-86
2022/06/10 00:37:32;;;;;;;10.93;7.35;;;12.60;99.90;;;-144.05;86.58;125687.94;6189150;23;20319;-82
2022/06/10 00:39:58;;;;;;;11.73;7.00;;;12.60;99.90;;;-144.05;86.35;125687.94;6189184;23;20016;-87
2022/06/10 00:42:24;;;;;;;11.02;7.45;;;12.60;99.90;;;-144.05;86.49;125687.94;6189629;23;20016;-86
2022/06/10 00:44:53;;;;;;;14.05;6.65;;;12.60;99.90;;;-144.05;86.38;125687.94;6190325;23;20036;-85
2022/06/10 00:47:35;;;;;;;12.13;6.82;;;12.60;99.90;;;-144.05;86.21;125687.94;6189884;23;20019;-87
2022/06/10 00:50:28;;;;;;;9.15;6.38;;;12.50;99.90;;;-144.05;86.45;125687.94;6217303;23;20076;-84
2022/06/10 00:53:06;;;;;;;11.18;6.75;;;12.60;99.90;;;-144.05;86.22;125687.94;6216873;23;20007;-88
2022/06/10 00:55:36;;;;;;;10.73;5.90;;;12.50;99.90;;;-144.05;85.86;125687.94;6217326;23;20009;-89
2022/06/10 00:58:32;;;;;;;11.57;6.70;;;12.50;99.90;;;-144.05;85.99;125687.94;6217344;23;20039;-88
2022/06/10 01:01:01;;;;;;;10.15;6.00;;;12.50;99.90;;;-144.05;85.86;125687.94;6230359;23;20031;-82
2022/06/10 01:03:27;;;;;;;14.43;7.30;;;12.50;99.90;;;-144.05;85.77;125687.94;6232433;23;20074;-84
2022/06/10 01:05:53;;;;;;;11.95;7.63;;;12.40;99.90;;;-144.05;85.79;125687.94;6188982;23;20039;-84
2022/06/10 01:08:23;;;;;;;12.32;6.43;;;12.40;99.90;;;-144.05;86.17;125687.94;6190633;23;20028;-85
2022/06/10 01:11:23;;;;;;;10.45;6.95;;;12.40;99.90;;;-144.05;86.14;125687.94;6218704;23;20011;-86
2022/06/10 01:14:51;;;;;;;15.15;7.72;;;12.40;99.90;;;-144.05;85.80;125687.94;6192236;23;20009;-86
2022/06/10 01:17:32;;;;;;;15.48;7.97;;;12.30;99.90;;;-144.05;86.10;125687.94;6218404;23;20181;-85
2022/06/10 01:20:43;;;;;;;10.25;7.07;;;12.30;99.90;;;-144.05;86.24;125687.94;6192109;23;20012;-87
2022/06/10 01:23:54;;;;;;;10.07;6.53;;;12.30;99.90;;;-144.05;86.28;125687.94;6192593;23;20004;-86
2022/06/10 01:29:50;;;;;;;10.00;6.20;;;12.30;99.90;;;-144.05;86.06;125687.94;6216892;23;20020;-84
2022/06/10 01:32:52;;;;;;;12.07;6.60;;;12.40;99.90;;;-144.05;86.16;125687.94;6215701;23;20004;-84
2022/06/10 01:36:04;;;;;;;11.27;6.45;;;12.50;99.90;;;-144.05;86.26;125687.94;6193317;23;20012;-82
2022/06/10 01:39:09;;;;;;;11.63;6.15;;;12.50;99.90;;;-144.05;86.04;125687.94;6240701;23;20007;-80
2022/06/10 01:42:28;;;;;;;12.68;6.80;;;12.50;99.90;;;-144.05;85.95;125687.94;6084986;23;20017;-87
2022/06/10 01:45:39;;;;;;;9.90;6.72;;;12.60;99.90;;;-144.05;85.75;125687.94;6189463;23;20426;-87
2022/06/10 01:48:22;;;;;;;13.85;6.75;;;12.60;99.90;;;-144.05;85.60;125687.94;6189441;23;20000;-86
2022/06/10 01:51:05;;;;;;;10.95;7.35;;;12.60;99.90;;;-144.05;85.61;125687.94;6216198;23;20087;-85
2022/06/10 01:54:00;;;;;;;12.27;7.32;;;12.60;99.90;;;-144.05;85.74;125687.94;6216138;23;20007;-85
2022/06/10 01:56:37;;;;;;;13.27;7.90;;;12.50;99.90;;;-144.05;86.14;125687.94;6189685;23;20442;-85
2022/06/10 01:59:30;;;;;;;16.27;7.82;;;12.60;99.90;;;-144.05;85.84;125687.94;6216488;23;20004;-86
2022/06/10 02:02:12;;;;;;;12.98;7.47;;;12.50;99.90;;;-144.05;85.67;125687.94;6198070;23;20005;-86
2022/06/10 02:04:56;;;;;;;9.90;6.72;;;12.50;99.90;;;-144.05;85.94;125687.94;6190260;23;20015;-87
2022/06/10 02:07:34;;;;;;;11.77;7.47;;;12.40;99.90;;;-144.05;86.20;125687.94;6189951;23;20012;-86
2022/06/10 02:10:20;;;;;;;10.98;7.00;;;12.40;99.90;;;-144.05;85.92;125687.94;6189538;23;20009;-86
2022/06/10 02:13:01;;;;;;;16.45;8.20;;;12.40;99.90;;;-144.05;86.42;125687.94;6216834;23;20000;-85
2022/06/10 02:15:38;;;;;;;14.10;8.20;;;12.40;99.90;;;-144.05;86.07;125687.94;6190119;23;20079;-86
2022/06/10 02:18:41;;;;;;;9.38;7.15;;;12.30;99.90;;;-144.05;86.28;125687.94;6191500;23;20005;-86
2022/06/10 02:21:23;;;;;;;10.45;7.80;;;12.30;99.90;;;-144.05;86.46;125687.94;6204726;23;20013;-87
2022/06/10 02:24:15;;;;;;;11.50;8.75;;;12.20;99.90;;;-144.05;86.20;125687.94;6191401;23;20035;-87
2022/06/10 02:26:43;;;;;;;14.45;9.15;;;12.20;99.90;;;-144.05;86.07;125687.94;6202391;23;20079;-86
2022/06/10 02:29:21;;;;;;;14.18;9.48;;;12.10;99.90;;;-144.05;86.18;125687.94;6234448;23;20390;-85
2022/06/10 02:31:58;;;;;;;16.42;8.48;;;12.00;99.90;;;-144.05;86.46;125687.94;6231165;23;20031;-86
2022/06/10 02:34:27;;;;;;;12.20;7.60;;;12.00;99.90;;;-144.05;86.19;125687.94;6224993;23;20036;-85
2022/06/10 02:37:11;;;;;;;11.65;8.35;;;12.00;99.90;;;-144.05;86.26;125687.94;6191217;23;20016;-87
2022/06/10 02:40:14;;;;;;;13.52;7.90;;;12.00;99.90;;;-144.05;86.25;125687.94;6190913;23;20009;-85
2022/06/10 02:43:13;;;;;;;12.45;7.88;;;11.90;99.90;;;-144.05;86.81;125687.94;6190730;23;20080;-84
2022/06/10 02:46:08;;;;;;;10.95;7.47;;;12.00;99.90;;;-144.05;86.11;125687.94;6217447;23;20004;-84
2022/06/10 02:49:18;;;;;;;14.45;8.18;;;12.10;99.90;;;-144.05;85.74;125687.94;6190758;23;20012;-84
2022/06/10 02:51:48;;;;;;;15.57;8.68;;;12.20;99.90;;;-144.05;85.79;125687.94;6217570;23;20000;-85
2022/06/10 02:54:29;;;;;;;10.30;7.63;;;12.20;99.90;;;-144.05;85.53;125687.94;6218264;23;20004;-84
2022/06/10 02:57:01;;;;;;;12.23;8.63;;;12.30;99.90;;;-144.05;85.50;125687.94;6218979;23;20060;-86
2022/06/10 03:02:39;;;;;;;11.98;7.20;;;12.30;99.90;;;-144.05;85.15;125687.94;6238350;23;20031;-81
2022/06/10 03:06:01;;;;;;;14.45;8.20;;;12.30;99.90;;;-144.05;84.61;125687.94;6224794;23;20115;-86
2022/06/10 03:08:48;;;;;;;11.43;8.35;;;12.30;99.90;;;-144.05;84.42;125687.94;6194142;23;20005;-86
2022/06/10 03:11:30;;;;;;;13.13;9.02;;;12.20;99.90;;;-144.05;84.16;125687.94;6217505;23;20043;-84
2022/06/10 03:14:15;;;;;;;17.63;8.98;;;12.10;99.90;;;-144.05;84.22;125687.94;6217655;23;20354;-84
2022/06/10 03:17:30;;;;;;;12.48;7.80;;;12.00;99.90;;;-144.05;84.36;125687.94;6217350;23;20001;-83
2022/06/10 03:20:52;;;;;;;14.75;8.40;;;11.90;99.90;;;-144.05;85.43;125687.94;6216896;23;20015;-83
2022/06/10 03:23:58;;;;;;;12.65;8.73;;;11.80;99.90;;;-144.05;85.64;125687.94;6191539;23;20012;-85
2022/06/10 03:29:56;;;;;;;11.05;8.23;;;11.70;99.90;;;-144.05;85.85;125687.94;6187205;23;20463;-86
2022/06/10 03:32:52;;;;;;;15.63;8.52;;;11.70;99.90;;;-144.05;85.98;125687.94;6212165;23;20020;-88
2022/06/10 03:35:46;;;;;;;11.00;7.78;;;11.70;99.90;;;-144.05;85.89;125687.94;6186589;23;20017;-87
2022/06/10 03:38:15;;;;;;;15.20;8.98;;;11.70;99.90;;;-144.05;85.99;125687.94;6189025;23;20005;-86
2022/06/10 03:40:50;;;;;;;16.75;9.65;;;11.70;99.90;;;-144.05;86.27;125687.94;6189274;23;20439;-87
2022/06/10 03:43:17;;;;;;;17.50;9.13;;;11.70;99.90;;;-144.05;85.86;125687.94;6188231;23;20013;-87
2022/06/10 03:45:58;;;;;;;19.23;9.80;;;11.80;99.90;;;-144.05;85.92;125687.94;6188606;23;20017;-84
2022/06/10 03:48:31;;;;;;;15.27;9.18;;;11.80;99.90;;;-144.05;85.79;125687.94;6188618;23;20327;-86
2022/06/10 03:51:01;;;;;;;14.20;9.23;;;11.80;99.90;;;-144.05;85.48;125687.94;6190008;23;20009;-86
2022/06/10 03:53:27;;;;;;;15.90;9.63;;;11.90;99.90;;;-144.05;85.16;125687.94;6191210;23;20013;-86
2022/06/10 03:55:54;;;;;;;14.38;10.20;;;11.90;99.90;;;-144.05;85.23;125687.94;6194353;23;20458;-87
2022/06/10 03:58:20;;;;;;;13.63;9.43;;;11.90;99.90;;;-144.05;85.10;125687.94;6193235;23;20056;-85
2022/06/10 04:00:47;;;;;;;12.70;9.95;;;12.00;99.90;;;-144.05;85.09;125687.94;6187861;23;20511;-85
2022/06/10 04:03:14;;;;;;;15.25;9.25;;;12.10;99.90;;;-144.05;84.97;125687.94;6187774;23;20072;-85
2022/06/10 04:05:40;;;;;;;14.57;8.85;;;12.00;99.90;;;-144.05;84.97;125687.94;6189232;23;20124;-85
2022/06/10 04:08:07;;;;;;;13.27;9.05;;;12.10;99.90;;;-144.05;84.84;125687.94;6186386;23;20009;-85
2022/06/10 04:10:33;;;;;;;14.23;9.05;;;12.00;99.90;;;-144.05;84.77;125687.94;6188632;23;20009;-86
2022/06/10 04:13:00;;;;;;;14.93;9.50;;;12.00;99.90;;;-144.05;84.44;125687.94;6186995;23;20461;-85
2022/06/10 04:15:27;;;;;;;13.93;8.43;;;12.10;99.90;;;-144.05;84.34;125687.94;6187277;23;20012;-86
2022/06/10 04:17:57;;;;;;;16.65;9.75;;;12.10;99.90;;;-144.05;84.34;125687.94;6187599;23;20001;-86
2022/06/10 04:20:35;;;;;;;15.07;9.60;;;12.20;99.90;;;-144.05;84.69;125687.94;6187299;23;20031;-85
2022/06/10 04:23:03;;;;;;;14.07;9.52;;;12.20;99.90;;;-144.05;84.02;125687.94;6192046;23;20013;-86
2022/06/10 04:25:33;;;;;;;18.05;9.65;;;12.30;99.90;;;-144.05;84.06;125687.94;6191952;23;20024;-82
2022/06/10 04:28:00;;;;;;;13.18;7.63;;;12.40;99.90;;;-144.05;83.91;125687.94;6189650;23;20013;-84
2022/06/10 04:30:34;;;;;;;14.27;8.63;;;12.40;99.90;;;-144.05;83.31;125687.94;6193889;23;20005;-87
2022/06/10 04:33:01;;;;;;;17.35;8.20;;;12.50;99.90;;;-144.05;83.22;125687.94;6192057;23;20005;-87
2022/06/10 04:35:29;;;;;;;19.85;8.98;;;12.60;99.90;;;-144.05;82.81;125687.94;6189450;23;20005;-84
2022/06/10 04:37:56;;;;;;;11.23;8.27;;;12.70;99.90;;;-144.05;82.70;125687.94;6187284;23;20013;-87
2022/06/10 04:40:30;;;;;;;14.07;8.32;;;12.80;99.90;;;-144.05;82.21;125687.94;6185371;23;20005;-85
2022/06/10 04:42:58;;;;;;;16.33;9.05;;;12.90;99.90;;;-144.05;81.79;125687.94;6188939;23;20050;-84
2022/06/10 04:45:37;;;;;;;14.85;9.20;;;13.00;99.90;;;-144.05;81.33;125687.94;6186586;23;20084;-85
2022/06/10 04:48:04;;;;;;;10.07;7.93;;;13.10;99.90;;;-144.05;81.08;125687.94;6186592;23;20009;-86
2022/06/10 04:50:30;;;;;;;10.93;7.43;;;13.20;99.90;;;-144.05;80.83;125687.94;6186966;23;20088;-84
2022/06/10 04:52:58;;;;;;;14.65;8.25;;;13.40;99.90;;;-144.05;80.25;125687.94;6188088;23;20165;-86
2022/06/10 04:55:27;;;;;;;12.27;8.00;;;13.50;99.90;;;-144.05;80.07;125687.94;6187888;23;20092;-86
2022/06/10 04:57:55;;;;;;;13.77;7.80;;;13.60;99.90;;;-144.05;79.93;125687.94;6186786;23;20092;-85
2022/06/10 05:00:32;;;;;;;16.90;7.28;;;13.70;99.90;;;-144.05;79.16;125687.94;6188263;23;20063;-86
2022/06/10 05:02:59;;;;;;;13.77;6.65;;;13.90;99.90;;;-144.05;78.30;125687.94;6192846;23;20088;-84
2022/06/10 05:05:26;;;;;;;13.40;6.95;;;14.00;99.90;;;-144.05;77.38;125687.94;6202479;23;20052;-83
2022/06/10 05:07:53;;;;;;;15.43;6.43;;;14.20;99.90;;;-144.05;77.51;125687.94;6211110;23;19997;-83
2022/06/10 05:10:19;;;;;;;14.52;7.03;;;14.30;99.90;;;-144.05;76.10;125687.94;6211037;23;20028;-84
2022/06/10 05:12:45;;;;;;;9.38;5.88;;;14.40;99.90;;;-144.05;75.65;125687.94;6197950;23;20009;-86
2022/06/10 05:15:21;;;;;;;10.88;4.78;;;14.60;99.90;;;-144.05;75.02;125687.94;6192731;23;20001;-87
2022/06/10 05:17:52;;;;;;;10.23;5.43;;;14.80;99.90;;;-144.05;74.53;125687.94;6193202;23;20001;-88
2022/06/10 05:20:27;;;;;;;10.57;5.68;;;14.90;99.90;;;-144.05;73.50;125687.94;6192164;23;20096;-85
2022/06/10 05:22:53;;;;;;;13.40;4.97;;;15.10;99.90;;;-144.05;72.79;125687.94;6190994;23;20012;-88
2022/06/10 05:25:20;;;;;;;8.07;4.80;;;15.20;99.90;;;-144.05;72.30;125687.94;6190454;23;20412;-85
2022/06/10 05:27:46;;;;;;;8.88;4.50;;;15.40;99.90;;;-144.05;71.50;125687.94;6191272;23;20025;-87
2022/06/10 05:30:21;;;;;;;12.95;5.53;;;15.50;99.90;;;-144.05;70.78;125687.94;6190164;23;20004;-86
2022/06/10 05:32:47;;;;;;;10.75;4.18;;;15.70;99.90;;;-144.05;70.07;125687.94;6191247;23;20029;-85
2022/06/10 05:35:14;;;;;;;16.50;4.45;;;15.80;99.90;;;-144.05;68.96;125687.94;6193485;23;20005;-87
2022/06/10 05:37:42;;;;;;;9.98;4.45;;;16.00;99.90;;;-144.05;68.09;125687.94;6192852;23;20001;-85
2022/06/10 05:40:12;;;;;;;8.98;3.83;;;16.10;99.90;;;-144.05;68.16;125687.94;6194012;23;20009;-85
2022/06/10 05:42:40;;;;;;;14.50;4.30;;;16.20;99.90;;;-144.05;67.96;125687.94;6191169;23;20005;-88
2022/06/10 05:45:11;;;;;;;8.10;3.28;;;16.30;99.90;;;-144.05;66.72;125687.94;6190734;23;20008;-86
2022/06/10 05:47:38;;;;;;;7.53;3.53;;;16.50;99.90;;;-144.05;65.63;125687.94;6192572;23;20131;-87
2022/06/10 05:50:13;;;;;;;7.75;3.25;;;16.70;99.90;;;-144.05;64.21;125687.94;6194019;23;20009;-86
2022/06/10 05:52:40;;;;;;;9.25;3.42;;;16.90;99.90;;;-144.05;63.92;125687.94;6191101;23;20100;-85
2022/06/10 05:55:10;;;;;;;11.77;2.95;;;17.00;99.90;;;-144.05;64.06;125687.94;6195764;23;20075;-83
2022/06/10 05:57:38;;;;;;;11.40;3.17;;;17.10;99.90;;;-144.05;62.62;125687.94;6189446;23;20008;-86
2022/06/10 06:00:21;;;;;;;9.18;2.72;;;17.40;99.90;;;-144.05;61.63;125687.94;6188164;23;20092;-85
2022/06/10 06:02:47;;;;;;;12.30;3.63;;;17.60;99.90;;;-144.05;60.69;125687.94;6189993;23;20439;-86
2022/06/10 06:05:15;;;;;;;13.88;4.35;;;17.80;99.90;;;-144.05;59.94;125687.94;6187896;23;20013;-83
2022/06/10 06:07:44;;;;;;;17.75;4.35;;;17.70;99.90;;;-144.05;59.98;125687.94;6188328;23;20020;-85
2022/06/10 06:10:23;;;;;;;23.38;5.55;;;17.90;99.90;;;-144.05;57.89;125687.94;6188333;23;20035;-85
2022/06/10 06:12:49;;;;;;;13.25;3.38;;;18.20;99.90;;;-144.05;57.96;125687.94;6187930;23;20320;-85
2022/06/10 06:15:17;;;;;;;12.07;2.20;;;18.50;99.90;;;-144.05;56.27;125687.94;6188555;23;20091;-85
2022/06/10 06:17:47;;;;;;;6.90;2.78;;;18.80;99.90;;;-144.05;57.30;125687.94;6188807;23;20148;-88
2022/06/10 06:20:14;;;;;;;7.95;2.33;;;18.70;99.90;;;-144.05;57.41;125687.94;6189841;23;20343;-86
2022/06/10 06:22:41;;;;;;;8.52;2.53;;;18.70;99.90;;;-144.05;56.63;125687.94;6190745;23;20089;-83
2022/06/10 06:25:12;;;;;;;12.40;3.40;;;18.90;99.90;;;-144.05;55.48;125687.94;6189334;23;20091;-86
2022/06/10 06:27:37;;;;;;;12.43;3.17;;;18.80;99.90;;;-144.05;56.30;125687.94;6188755;23;20017;-87
2022/06/10 06:30:05;;;;;;;11.40;3.50;;;18.80;99.90;;;-144.05;56.21;125687.94;6189600;23;20055;-85
2022/06/10 06:32:31;;;;;;;9.82;2.60;;;18.60;99.90;;;-144.05;56.88;125687.94;6190812;23;20016;-85
2022/06/10 06:34:57;;;;;;;19.08;4.85;;;18.50;99.90;;;-144.05;57.80;125687.94;6188333;23;20017;-86
2022/06/10 06:37:23;;;;;;;11.52;3.75;;;18.40;99.90;;;-144.05;57.68;125687.94;6187747;23;20470;-84
2022/06/10 06:39:49;;;;;;;14.30;2.95;;;18.20;99.90;;;-144.05;58.51;125687.94;6187424;23;20015;-86
2022/06/10 06:42:16;;;;;;;7.68;2.63;;;18.00;99.90;;;-144.05;58.04;125687.94;6188628;23;20037;-85
2022/06/10 06:44:42;;;;;;;13.15;3.15;;;18.00;99.90;;;-144.05;58.08;125687.94;6188626;23;20044;-86
2022/06/10 06:47:13;;;;;;;9.05;2.97;;;18.00;99.90;;;-144.05;58.19;125687.94;6188649;23;20220;-86
2022/06/10 06:49:40;;;;;;;11.77;2.70;;;17.90;99.90;;;-144.05;58.31;125687.94;6186898;23;20070;-85
2022/06/10 06:52:08;;;;;;;8.77;2.63;;;18.00;99.90;;;-144.05;57.89;125687.94;6188225;23;20012;-87
2022/06/10 06:54:37;;;;;;;7.63;2.53;;;18.00;99.90;;;-144.05;57.58;125687.94;6189436;23;20025;-87
2022/06/10 06:57:05;;;;;;;7.45;2.17;;;18.10;99.90;;;-144.05;57.04;125687.94;6186780;23;20041;-85
2022/06/10 06:59:33;;;;;;;9.25;2.50;;;18.30;99.90;;;-144.05;56.16;125687.94;6188890;23;20005;-84
2022/06/10 07:01:59;;;;;;;9.77;2.72;;;18.40;99.90;;;-144.05;56.82;125687.94;6188006;23;20104;-87
2022/06/10 07:04:26;;;;;;;5.65;1.70;;;18.30;99.90;;;-144.05;56.15;125687.94;6192975;23;20020;-83
2022/06/10 07:06:52;;;;;;;6.43;1.70;;;18.40;99.90;;;-144.05;55.13;125687.94;6211874;23;20001;-82
2022/06/10 07:09:18;;;;;;;5.15;1.95;;;18.40;99.90;;;-144.05;55.97;125687.94;6187993;23;20028;-87
2022/06/10 07:11:44;;;;;;;10.25;2.22;;;18.60;99.90;;;-144.05;53.26;125687.94;6188617;23;20430;-86
2022/06/10 07:14:12;;;;;;;8.98;2.53;;;18.80;99.90;;;-144.05;53.96;125687.94;6191143;23;20029;-88
2022/06/10 07:16:38;;;;;;;11.15;2.28;;;18.80;99.90;;;-144.05;53.71;125687.94;6190802;23;19997;-89
2022/06/10 07:19:08;;;;;;;9.07;2.20;;;18.80;99.90;;;-144.05;54.73;125687.94;6189079;23;20013;-87
2022/06/10 07:21:35;;;;;;;6.97;2.15;;;18.70;99.90;;;-144.05;53.92;125687.94;6191249;23;19997;-86
2022/06/10 07:24:01;;;;;;;11.10;2.25;;;18.70;99.90;;;-144.05;53.69;125687.94;6189605;23;20059;-88
2022/06/10 07:26:27;;;;;;;9.07;2.20;;;18.80;99.90;;;-144.05;55.60;125687.94;6188336;23;20016;-89
2022/06/10 07:28:53;;;;;;;8.82;2.50;;;18.60;99.90;;;-144.05;55.10;125687.94;6190295;23;20453;-87
2022/06/10 07:31:19;;;;;;;9.90;2.80;;;18.70;99.90;;;-144.05;55.09;125687.94;6163546;23;20013;-87
2022/06/10 07:33:46;;;;;;;6.97;2.00;;;18.70;99.90;;;-144.05;53.61;125687.94;6164050;23;20331;-87
2022/06/10 07:36:12;;;;;;;4.82;2.08;;;18.90;99.90;;;-144.05;52.75;125687.94;6164851;23;20016;-87
2022/06/10 07:38:38;;;;;;;10.82;2.35;;;19.00;99.90;;;-144.05;52.26;125687.94;6163352;23;20008;-86
2022/06/10 07:43:48;;;;;;;8.77;2.00;;;19.40;99.90;;;-144.05;51.50;125687.94;6188738;23;20019;-87
2022/06/10 07:46:20;;;;;;;6.85;1.98;;;19.30;99.90;;;-144.05;51.44;125687.94;6163448;23;20013;-86
2022/06/10 07:48:47;;;;;;;8.00;1.80;;;19.40;99.90;;;-144.05;51.61;125687.94;6162984;23;20012;-85
2022/06/10 07:51:14;;;;;;;5.72;1.48;;;19.40;99.90;;;-144.05;50.24;125687.94;6163465;23;20020;-87
2022/06/10 07:53:41;;;;;;;7.07;1.70;;;19.50;99.90;;;-144.05;49.90;125687.94;6163099;23;20009;-89
2022/06/10 07:56:13;;;;;;;4.47;1.50;;;19.40;99.90;;;-144.05;50.00;125687.94;6189795;23;20421;-87
2022/06/10 07:58:40;;;;;;;5.03;1.73;;;19.30;99.90;;;-144.05;51.27;125687.94;6162546;23;20143;-87
2022/06/10 08:01:06;;;;;;;9.45;1.73;;;19.10;99.90;;;-144.05;50.35;125687.94;6163220;23;20005;-88
2022/06/10 08:03:32;;;;;;;6.15;1.67;;;19.10;99.90;;;-144.05;50.39;125687.94;6162579;23;20012;-86
2022/06/10 08:05:59;;;;;;;9.18;1.80;;;19.00;99.90;;;-144.05;50.93;125687.94;6189307;23;20012;-87
2022/06/10 08:08:26;;;;;;;6.57;1.73;;;18.90;99.90;;;-144.05;51.91;125687.94;6162160;23;20024;-85
2022/06/10 08:10:52;;;;;;;4.55;1.77;;;18.80;99.90;;;-144.05;51.77;125687.94;6163911;23;20035;-84
2022/06/10 08:13:19;;;;;;;6.97;1.95;;;18.70;99.90;;;-144.05;51.24;125687.94;6163520;23;20443;-85
2022/06/10 08:15:48;;;;;;;5.00;1.65;;;18.70;99.90;;;-144.05;51.90;125687.94;6162113;23;20335;-83
2022/06/10 08:18:21;;;;;;;8.13;2.05;;;18.80;99.90;;;-144.05;51.98;125687.94;6164062;23;20005;-85
2022/06/10 08:23:35;;;;;;;8.48;1.70;;;19.00;99.90;;;-144.05;52.17;125687.94;6194971;23;20020;-86
2022/06/10 08:26:07;;;;;;;6.20;1.58;;;18.90;99.90;;;-144.05;51.93;125687.94;6179802;23;20024;-83
2022/06/10 08:28:35;;;;;;;4.82;1.58;;;19.00;99.90;;;-144.05;52.29;125687.94;6193763;23;20033;-89
2022/06/10 08:31:03;;;;;;;9.20;1.63;;;19.10;99.90;;;-144.05;51.92;125687.94;6192046;23;20009;-88
2022/06/10 08:33:29;;;;;;;10.88;1.83;;;19.10;99.90;;;-144.05;51.90;125687.94;6189624;23;20041;-87
2022/06/10 08:35:55;;;;;;;5.97;1.40;;;19.10;99.90;;;-144.05;51.50;125687.94;6190905;23;20023;-84
2022/06/10 08:38:23;;;;;;;5.65;1.50;;;19.10;99.90;;;-144.05;51.85;125687.94;6190379;23;20009;-88
2022/06/10 08:41:04;;;;;;;5.65;1.70;;;19.00;99.90;;;-144.05;52.22;125687.94;6191652;23;20009;-86
2022/06/10 08:44:09;;;;;;;7.75;1.80;;;19.10;99.90;;;-144.05;51.33;125687.94;6197932;23;20005;-86
2022/06/10 08:47:22;;;;;;;8.63;2.22;;;19.40;99.90;;;-144.05;50.97;125687.94;6193424;23;20005;-87
2022/06/10 08:50:48;;;;;;;5.80;1.40;;;19.70;99.90;;;-144.05;50.56;125687.94;6191901;23;20013;-86
2022/06/10 08:54:09;;;;;;;10.93;1.70;;;20.00;99.90;;;-144.05;48.83;125687.94;6183217;23;20073;-85
2022/06/10 08:56:53;;;;;;;7.10;1.23;;;20.40;99.90;;;-144.05;47.84;125687.94;6190506;23;20005;-88
2022/06/10 08:59:43;;;;;;;8.68;1.70;;;20.80;99.90;;;-144.05;48.33;125687.94;6198932;23;20069;-82
2022/06/10 09:02:42;;;;;;;8.02;1.48;;;20.70;99.90;;;-144.05;47.58;125687.94;6203277;23;20021;-86
2022/06/10 09:05:30;;;;;;;5.05;1.30;;;21.30;99.90;;;-144.05;46.30;125687.94;6191255;23;20005;-88
2022/06/10 09:08:04;;;;;;;5.03;1.55;;;21.80;99.90;;;-144.05;45.64;125687.94;6190299;23;20029;-87
2022/06/10 09:10:56;;;;;;;5.47;1.38;;;22.30;99.90;;;-144.05;42.78;125687.94;6189846;23;20032;-86
2022/06/10 09:13:35;;;;;;;8.43;1.48;;;23.10;99.90;;;-144.05;41.69;125687.94;6190047;23;20005;-87
2022/06/10 09:16:57;;;;;;;5.13;1.15;;;23.70;99.90;;;-144.05;40.58;125687.94;6193752;23;20001;-84
2022/06/10 09:20:01;;;;;;;4.70;1.10;;;23.90;99.20;;;-144.05;40.37;125687.94;6198548;23;20037;-87
2022/06/10 09:22:58;;;;;;;6.93;1.40;;;24.00;97.80;;;-144.05;40.44;125687.94;6198685;23;20009;-87
2022/06/10 09:25:59;;;;;;;7.03;1.42;;;23.90;97.40;;;-144.05;41.27;125687.94;6197292;23;20005;-86
2022/06/10 09:28:25;;;;;;;6.35;1.48;;;23.90;99.60;;;-144.05;40.84;125687.94;6196701;23;20025;-83
2022/06/10 09:31:13;;;;;;;8.57;1.67;;;23.80;96.00;;;-144.05;40.92;125687.94;6195940;23;20016;-87
2022/06/10 09:34:05;;;;;;;4.78;1.35;;;23.90;99.30;;;-144.05;39.98;125687.94;6192893;23;20073;-84
2022/06/10 09:37:15;;;;;;;8.50;1.40;;;24.10;97.30;;;-144.05;40.23;125687.94;6194359;23;20005;-85
2022/06/10 09:43:16;;;;;;;6.07;1.35;;;24.50;96.30;;;-144.05;38.92;125687.94;6195297;23;20490;-85
2022/06/10 09:46:18;;;;;;;7.32;1.95;;;24.80;93.10;;;-144.05;39.55;125687.94;6192263;23;20016;-85
2022/06/10 09:49:29;;;;;;;8.45;1.83;;;24.60;93.10;;;-144.05;40.88;125687.94;6195221;23;20013;-85
2022/06/10 09:52:31;;;;;;;6.93;1.65;;;24.00;91.90;;;-144.05;41.66;125687.94;6078335;23;20117;-86
2022/06/10 09:55:36;;;;;;;4.80;1.25;;;23.50;99.70;;;-144.05;41.65;125687.94;6105637;23;20014;-86
2022/06/10 09:58:41;;;;;;;6.35;1.63;;;23.30;99.00;;;-144.05;42.51;125687.94;6192108;23;20012;-84
2022/06/10 10:01:53;;;;;;;6.68;1.50;;;23.30;99.90;;;-144.05;41.17;125687.94;6192627;23;20016;-87
2022/06/10 10:05:05;;;;;;;7.28;1.48;;;23.20;97.20;;;-144.05;43.30;125687.94;6123939;23;20084;-85
2022/06/10 10:08:17;;;;;;;6.32;1.30;;;22.80;99.90;;;-144.05;43.01;125687.94;6192319;23;20087;-86
2022/06/10 10:11:05;;;;;;;5.43;1.50;;;22.50;99.90;;;-144.05;44.10;125687.94;6191018;23;20005;-86
2022/06/10 10:14:27;;;;;;;8.57;1.30;;;22.30;99.90;;;-144.05;44.25;125687.94;6191009;23;20091;-87
2022/06/10 10:18:06;;;;;;;5.57;1.55;;;22.30;99.90;;;-144.05;44.01;125687.94;6192201;23;20328;-85
2022/06/10 10:21:20;;;;;;;6.45;1.48;;;22.40;99.90;;;-144.05;43.05;125687.94;6135021;23;20053;-87
2022/06/10 10:23:53;;;;;;;5.80;1.60;;;22.90;99.90;;;-144.05;41.93;125687.94;6196145;23;20016;-88
2022/06/10 10:27:26;;;;;;;4.75;1.33;;;22.80;99.90;;;-144.05;43.73;125687.94;6192596;23;20012;-89
2022/06/10 10:30:44;;;;;;;8.98;2.28;;;22.60;99.90;;;-144.05;44.15;125687.94;6194461;23;20012;-86
2022/06/10 10:33:15;;;;;;;6.47;1.33;;;22.10;99.90;;;-144.05;45.74;125687.94;6195241;23;20009;-88
2022/06/10 10:36:03;;;;;;;4.85;1.58;;;21.60;99.90;;;-144.05;46.14;125687.94;6192302;23;20005;-88
2022/06/10 10:38:52;;;;;;;5.35;1.30;;;21.30;99.90;;;-144.05;47.55;125687.94;6168037;23;20105;-87
2022/06/10 10:41:54;;;;;;;5.40;1.67;;;21.10;99.90;;;-144.05;46.83;125687.94;6171809;23;20001;-88
2022/06/10 10:44:45;;;;;;;6.72;1.67;;;21.10;99.90;;;-144.05;48.29;125687.94;6138181;23;20060;-88
2022/06/10 10:47:12;;;;;;;4.85;1.40;;;20.90;99.90;;;-144.05;48.15;125687.94;6138561;23;20005;-88
2022/06/10 10:50:15;;;;;;;8.02;1.40;;;21.20;99.90;;;-144.05;46.80;125687.94;6139388;23;20033;-88
2022/06/10 10:52:59;;;;;;;6.03;1.70;;;21.30;99.90;;;-144.05;47.14;125687.94;6139681;23;20036;-88
2022/06/10 10:55:38;;;;;;;5.22;1.65;;;21.80;99.90;;;-144.05;45.64;125687.94;6147573;23;20001;-89
2022/06/10 10:58:38;;;;;;;5.28;1.80;;;22.20;99.90;;;-144.05;44.88;125687.94;6148671;23;20069;-88
2022/06/10 11:01:47;;;;;;;9.95;1.80;;;22.50;99.90;;;-144.05;44.59;125687.94;6149608;23;20301;-84